Time;durP1;ratioP1;P1;durP2;ratioP2;P2;SDS_P1;SDS_P2;PMS_P1;PMS_P2;Temp;Humidity;BMP_temperature;BMP_pressure;BME280_temperature;BME280_humidity;BME280_pressure;Samples;Min_cycle;Max_cycle;Signal;HPM_P1;HPM_P2
2023/08/22 00:01:49;;;;;;;4.83;2.00;;;;;;;;;;5007195;28;20444;-79
2023/08/22 00:04:19;;;;;;;5.00;2.33;;;;;;;;;;5005278;28;20455;-82
2023/08/22 00:06:46;;;;;;;5.73;2.10;;;;;;;;;;5006564;28;20440;-83
2023/08/22 00:09:14;;;;;;;5.20;1.93;;;;;;;;;;5006002;28;20508;-83
2023/08/22 00:11:42;;;;;;;4.10;2.30;;;;;;;;;;5005509;28;20452;-82
2023/08/22 00:14:09;;;;;;;5.47;2.13;;;;;;;;;;5007043;28;20492;-81
2023/08/22 00:16:37;;;;;;;5.50;2.53;;;;;;;;;;5006389;28;20486;-83
2023/08/22 00:19:05;;;;;;;7.60;2.30;;;;;;;;;;5011100;28;20452;-83
2023/08/22 00:21:34;;;;;;;4.67;2.60;;;;;;;;;;5011828;28;20510;-81
2023/08/22 00:24:03;;;;;;;3.83;2.60;;;;;;;;;;5010998;28;20524;-81
2023/08/22 00:26:30;;;;;;;5.20;2.40;;;;;;;;;;5010888;28;20479;-83
2023/08/22 00:29:01;;;;;;;10.57;2.50;;;;;;;;;;5011948;28;20893;-83
2023/08/22 00:31:29;;;;;;;7.90;2.60;;;;;;;;;;5006049;28;20456;-81
2023/08/22 00:34:01;;;;;;;6.40;3.20;;;;;;;;;;5009558;28;20476;-83
2023/08/22 00:36:30;;;;;;;6.63;3.10;;;;;;;;;;5006248;28;20496;-83
2023/08/22 00:38:59;;;;;;;4.90;2.27;;;;;;;;;;5012862;28;20456;-83
2023/08/22 00:41:27;;;;;;;13.67;2.10;;;;;;;;;;5007369;28;20857;-82
2023/08/22 00:43:54;;;;;;;3.87;2.13;;;;;;;;;;5007956;28;20452;-83
2023/08/22 00:46:24;;;;;;;7.37;2.23;;;;;;;;;;5013344;28;20455;-79
2023/08/22 00:48:51;;;;;;;3.43;1.93;;;;;;;;;;5009433;28;20495;-84
2023/08/22 00:51:19;;;;;;;3.43;1.80;;;;;;;;;;5013215;28;20464;-83
2023/08/22 00:53:50;;;;;;;6.40;2.13;;;;;;;;;;5009509;28;20452;-83
2023/08/22 00:56:19;;;;;;;4.60;2.23;;;;;;;;;;5008476;28;20476;-83
2023/08/22 00:58:47;;;;;;;4.63;2.20;;;;;;;;;;5011635;28;20459;-81
2023/08/22 01:01:15;;;;;;;5.83;2.17;;;;;;;;;;5009904;28;20732;-82
2023/08/22 01:03:42;;;;;;;4.03;2.53;;;;;;;;;;5012431;28;20543;-81
2023/08/22 01:06:12;;;;;;;7.93;2.03;;;;;;;;;;5011086;28;20465;-82
2023/08/22 01:08:42;;;;;;;3.97;2.50;;;;;;;;;;5012983;28;20472;-85
2023/08/22 01:11:12;;;;;;;7.30;2.30;;;;;;;;;;5011048;28;20432;-82
2023/08/22 01:13:43;;;;;;;5.23;2.43;;;;;;;;;;5013967;28;20928;-83
2023/08/22 01:16:12;;;;;;;6.50;2.50;;;;;;;;;;5010540;28;20496;-82
2023/08/22 01:18:40;;;;;;;5.83;2.43;;;;;;;;;;5011290;28;20556;-82
2023/08/22 01:21:08;;;;;;;6.73;2.90;;;;;;;;;;5011619;28;20460;-84
2023/08/22 01:23:37;;;;;;;6.63;2.60;;;;;;;;;;5008956;28;20759;-81
2023/08/22 01:26:05;;;;;;;3.67;2.27;;;;;;;;;;5009887;28;20436;-83
2023/08/22 01:28:36;;;;;;;5.30;2.67;;;;;;;;;;5010046;28;20460;-83
2023/08/22 01:31:16;;;;;;;5.10;2.00;;;;;;;;;;5009288;28;20436;-82
2023/08/22 01:33:49;;;;;;;5.00;2.57;;;;;;;;;;5008648;28;20456;-83
2023/08/22 01:36:18;;;;;;;5.80;2.50;;;;;;;;;;5007403;28;20467;-81
2023/08/22 01:38:47;;;;;;;4.90;2.37;;;;;;;;;;5005489;28;20440;-83
2023/08/22 01:41:16;;;;;;;5.57;2.40;;;;;;;;;;5006113;28;20476;-84
2023/08/22 01:43:52;;;;;;;5.13;2.40;;;;;;;;;;5006275;28;20887;-83
2023/08/22 01:46:20;;;;;;;6.33;4.07;;;;;;;;;;5007498;28;20448;-83
2023/08/22 01:48:48;;;;;;;8.40;3.03;;;;;;;;;;5009654;28;20573;-83
2023/08/22 01:51:15;;;;;;;4.20;2.50;;;;;;;;;;5005907;28;20487;-79
2023/08/22 01:53:53;;;;;;;6.53;2.63;;;;;;;;;;5011139;28;20427;-82
2023/08/22 01:56:21;;;;;;;5.00;2.27;;;;;;;;;;5006822;28;20499;-83
2023/08/22 01:58:49;;;;;;;5.87;2.53;;;;;;;;;;5010391;28;20710;-82
2023/08/22 02:01:17;;;;;;;5.57;2.50;;;;;;;;;;5004107;28;20526;-82
2023/08/22 02:03:48;;;;;;;7.93;2.60;;;;;;;;;;5009560;28;20487;-81
2023/08/22 02:06:16;;;;;;;4.30;1.90;;;;;;;;;;5008949;28;20463;-83
2023/08/22 02:08:43;;;;;;;6.23;2.57;;;;;;;;;;5010391;28;20547;-83
2023/08/22 02:11:13;;;;;;;3.57;2.13;;;;;;;;;;5007821;28;20457;-79
2023/08/22 02:13:40;;;;;;;3.60;1.90;;;;;;;;;;5010944;28;20456;-82
2023/08/22 02:16:08;;;;;;;7.33;2.43;;;;;;;;;;5006843;28;20519;-81
2023/08/22 02:18:36;;;;;;;3.33;2.20;;;;;;;;;;5007898;28;20479;-82
2023/08/22 02:21:03;;;;;;;4.30;2.10;;;;;;;;;;5007226;28;20736;-82
2023/08/22 02:23:32;;;;;;;6.70;2.40;;;;;;;;;;5006792;28;20543;-82
2023/08/22 02:25:59;;;;;;;7.10;2.07;;;;;;;;;;5008376;28;20498;-84
2023/08/22 02:28:29;;;;;;;5.00;1.97;;;;;;;;;;5007366;28;20890;-82
2023/08/22 02:30:56;;;;;;;6.27;1.87;;;;;;;;;;5008402;28;20456;-81
2023/08/22 02:33:24;;;;;;;3.13;2.03;;;;;;;;;;5006071;28;20850;-83
2023/08/22 02:35:52;;;;;;;7.00;2.33;;;;;;;;;;5008228;28;20452;-84
2023/08/22 02:38:20;;;;;;;4.33;1.90;;;;;;;;;;5009905;28;20503;-79
2023/08/22 02:40:47;;;;;;;4.57;2.63;;;;;;;;;;5008549;28;20456;-82
2023/08/22 02:43:15;;;;;;;3.97;2.33;;;;;;;;;;5011243;28;20451;-79
2023/08/22 02:45:45;;;;;;;4.20;2.20;;;;;;;;;;5006523;28;20516;-84
2023/08/22 02:48:13;;;;;;;3.03;1.80;;;;;;;;;;5008376;28;20455;-82
2023/08/22 02:50:40;;;;;;;6.07;2.00;;;;;;;;;;5007275;28;20471;-84
2023/08/22 02:53:11;;;;;;;11.03;2.30;;;;;;;;;;5006463;28;20456;-81
2023/08/22 02:55:38;;;;;;;4.20;2.47;;;;;;;;;;5012586;28;20467;-83
2023/08/22 02:58:06;;;;;;;5.50;2.30;;;;;;;;;;5011288;28;20546;-84
2023/08/22 03:00:34;;;;;;;3.73;2.10;;;;;;;;;;5009754;28;20440;-83
2023/08/22 03:03:04;;;;;;;6.17;2.53;;;;;;;;;;5008522;28;20448;-83
2023/08/22 03:05:32;;;;;;;5.30;2.00;;;;;;;;;;5008546;28;20463;-83
2023/08/22 03:07:59;;;;;;;5.83;2.80;;;;;;;;;;5007315;28;20466;-83
2023/08/22 03:10:27;;;;;;;3.60;2.17;;;;;;;;;;5006376;28;20495;-82
2023/08/22 03:12:55;;;;;;;8.57;2.13;;;;;;;;;;5007787;28;20689;-82
2023/08/22 03:15:22;;;;;;;5.93;2.27;;;;;;;;;;5005331;28;20460;-83
2023/08/22 03:17:50;;;;;;;6.60;3.20;;;;;;;;;;5009545;28;20498;-80
2023/08/22 03:20:19;;;;;;;5.43;2.10;;;;;;;;;;5005496;28;20459;-82
2023/08/22 03:22:47;;;;;;;3.67;2.37;;;;;;;;;;5006879;28;20471;-82
2023/08/22 03:25:18;;;;;;;3.20;2.30;;;;;;;;;;5007992;28;20876;-80
2023/08/22 03:27:45;;;;;;;4.80;1.97;;;;;;;;;;5006469;28;20459;-83
2023/08/22 03:30:15;;;;;;;3.90;2.20;;;;;;;;;;5007950;28;20448;-79
2023/08/22 03:32:43;;;;;;;3.67;1.70;;;;;;;;;;5004882;28;20491;-84
2023/08/22 03:35:11;;;;;;;4.40;1.90;;;;;;;;;;5006210;28;20872;-83
2023/08/22 03:37:40;;;;;;;5.40;2.03;;;;;;;;;;5008561;28;20529;-83
2023/08/22 03:40:08;;;;;;;4.00;2.30;;;;;;;;;;5008670;28;20487;-83
2023/08/22 03:42:36;;;;;;;4.07;1.93;;;;;;;;;;5005817;28;20460;-84
2023/08/22 03:45:04;;;;;;;3.67;1.87;;;;;;;;;;5007094;28;20799;-81
2023/08/22 03:47:31;;;;;;;3.77;2.00;;;;;;;;;;5006960;28;20463;-82
2023/08/22 03:49:59;;;;;;;3.27;2.03;;;;;;;;;;5008635;28;20476;-83
2023/08/22 03:52:27;;;;;;;6.90;2.17;;;;;;;;;;5006470;28;20507;-84
2023/08/22 03:54:56;;;;;;;3.40;1.70;;;;;;;;;;5012217;28;20505;-82
2023/08/22 03:57:24;;;;;;;4.83;1.60;;;;;;;;;;5014055;28;20492;-83
2023/08/22 03:59:51;;;;;;;9.00;2.00;;;;;;;;;;5012950;28;20456;-82
2023/08/22 04:02:19;;;;;;;4.87;2.50;;;;;;;;;;5011718;28;20742;-81
2023/08/22 04:04:47;;;;;;;5.70;2.53;;;;;;;;;;5010170;28;20467;-83
2023/08/22 04:07:15;;;;;;;4.70;2.50;;;;;;;;;;5011951;28;20845;-83
2023/08/22 04:09:42;;;;;;;3.80;2.07;;;;;;;;;;5009571;28;20502;-80
2023/08/22 04:12:12;;;;;;;5.30;2.23;;;;;;;;;;5007817;28;20459;-82
2023/08/22 04:14:39;;;;;;;4.70;1.97;;;;;;;;;;5009499;28;20474;-83
2023/08/22 04:17:07;;;;;;;3.17;1.97;;;;;;;;;;5006562;28;20491;-83
2023/08/22 04:19:38;;;;;;;3.70;1.90;;;;;;;;;;5011495;28;20480;-83
2023/08/22 04:22:06;;;;;;;5.23;2.20;;;;;;;;;;5007081;28;20451;-84
2023/08/22 04:24:35;;;;;;;3.87;2.33;;;;;;;;;;5007950;28;20455;-81
2023/08/22 04:27:03;;;;;;;3.67;1.83;;;;;;;;;;5005979;28;20563;-83
2023/08/22 04:29:32;;;;;;;3.60;2.13;;;;;;;;;;5009609;28;20456;-81
2023/08/22 04:32:03;;;;;;;4.23;2.20;;;;;;;;;;5006291;28;20937;-84
2023/08/22 04:34:31;;;;;;;4.07;2.07;;;;;;;;;;5005410;28;20483;-82
2023/08/22 04:36:58;;;;;;;4.90;1.90;;;;;;;;;;5005406;28;20448;-82
2023/08/22 04:39:26;;;;;;;4.90;2.10;;;;;;;;;;5003907;28;20467;-83
2023/08/22 04:41:54;;;;;;;6.23;1.93;;;;;;;;;;5009895;28;20444;-82
2023/08/22 04:44:21;;;;;;;5.80;3.43;;;;;;;;;;5007989;28;20456;-83
2023/08/22 04:46:51;;;;;;;4.87;2.03;;;;;;;;;;5010748;28;20459;-81
2023/08/22 04:49:18;;;;;;;4.40;2.10;;;;;;;;;;5007619;28;20460;-82
2023/08/22 04:51:46;;;;;;;3.63;2.30;;;;;;;;;;5006560;28;20452;-84
2023/08/22 04:54:14;;;;;;;5.50;2.47;;;;;;;;;;5007552;28;20487;-83
2023/08/22 04:56:41;;;;;;;4.70;2.40;;;;;;;;;;5008065;28;20448;-82
2023/08/22 04:59:09;;;;;;;3.40;2.00;;;;;;;;;;5009058;28;20472;-80
2023/08/22 05:01:37;;;;;;;5.20;2.57;;;;;;;;;;5006084;28;20482;-82
2023/08/22 05:04:09;;;;;;;4.83;2.00;;;;;;;;;;5008724;28;20448;-82
2023/08/22 05:06:37;;;;;;;3.50;2.27;;;;;;;;;;5004674;28;21103;-82
2023/08/22 05:09:04;;;;;;;4.27;2.10;;;;;;;;;;5023749;28;20478;-82
2023/08/22 05:11:32;;;;;;;4.83;2.00;;;;;;;;;;5028534;28;20451;-82
2023/08/22 05:14:00;;;;;;;5.83;1.97;;;;;;;;;;5026081;28;20469;-82
2023/08/22 05:16:28;;;;;;;5.50;2.37;;;;;;;;;;5027393;28;20459;-83
2023/08/22 05:18:56;;;;;;;3.37;1.90;;;;;;;;;;5022904;28;20495;-80
2023/08/22 05:21:25;;;;;;;6.23;2.93;;;;;;;;;;5024855;28;20439;-81
2023/08/22 05:23:53;;;;;;;6.97;2.10;;;;;;;;;;5021063;28;20452;-83
2023/08/22 05:26:21;;;;;;;3.90;2.50;;;;;;;;;;5024473;28;20447;-80
2023/08/22 05:28:52;;;;;;;3.60;1.80;;;;;;;;;;5021959;28;20459;-80
2023/08/22 05:31:22;;;;;;;10.33;2.13;;;;;;;;;;5024053;28;20455;-81
2023/08/22 05:33:53;;;;;;;3.63;2.03;;;;;;;;;;5021592;28;20527;-79
2023/08/22 05:36:21;;;;;;;7.30;2.13;;;;;;;;;;5023260;28;20479;-80
2023/08/22 05:38:50;;;;;;;3.63;1.60;;;;;;;;;;5025468;28;20479;-79
2023/08/22 05:41:18;;;;;;;5.00;2.20;;;;;;;;;;5023636;28;20485;-81
2023/08/22 05:43:52;;;;;;;5.27;2.30;;;;;;;;;;5024232;28;20909;-78
2023/08/22 05:46:20;;;;;;;4.80;2.40;;;;;;;;;;5020021;28;20510;-81
2023/08/22 05:48:47;;;;;;;4.37;2.20;;;;;;;;;;5023994;28;20649;-83
2023/08/22 05:51:15;;;;;;;3.20;2.03;;;;;;;;;;5020585;28;20473;-82
2023/08/22 05:53:50;;;;;;;4.23;2.70;;;;;;;;;;5023710;28;20456;-81
2023/08/22 05:56:19;;;;;;;4.93;2.27;;;;;;;;;;5022215;28;20451;-81
2023/08/22 05:58:46;;;;;;;4.37;2.40;;;;;;;;;;5022619;28;20506;-79
2023/08/22 06:01:15;;;;;;;5.60;2.30;;;;;;;;;;5020616;28;20435;-80
2023/08/22 06:03:51;;;;;;;4.60;2.60;;;;;;;;;;5026248;28;20539;-81
2023/08/22 06:06:19;;;;;;;8.63;2.50;;;;;;;;;;5025391;28;20467;-78
2023/08/22 06:08:46;;;;;;;8.40;2.50;;;;;;;;;;5021731;28;20490;-78
2023/08/22 06:11:14;;;;;;;7.37;2.23;;;;;;;;;;5025473;28;20469;-81
2023/08/22 06:13:50;;;;;;;4.50;1.90;;;;;;;;;;5017840;28;20455;-81
2023/08/22 06:16:17;;;;;;;8.20;2.47;;;;;;;;;;5022408;28;20447;-80
2023/08/22 06:18:45;;;;;;;7.20;2.73;;;;;;;;;;5019832;28;20526;-80
2023/08/22 06:21:13;;;;;;;7.73;2.30;;;;;;;;;;5024566;28;20514;-80
2023/08/22 06:23:41;;;;;;;5.53;2.50;;;;;;;;;;5016763;28;20539;-78
2023/08/22 06:26:08;;;;;;;7.73;4.33;;;;;;;;;;5023378;28;20454;-81
2023/08/22 06:28:36;;;;;;;4.83;3.07;;;;;;;;;;5016752;28;20451;-83
2023/08/22 06:31:06;;;;;;;6.73;2.87;;;;;;;;;;5022060;28;20447;-80
2023/08/22 06:33:33;;;;;;;4.07;2.57;;;;;;;;;;5017892;28;20481;-82
2023/08/22 06:36:01;;;;;;;6.33;2.97;;;;;;;;;;5020341;28;20451;-82
2023/08/22 06:38:29;;;;;;;4.03;2.83;;;;;;;;;;5023693;28;20488;-81
2023/08/22 06:40:58;;;;;;;6.47;2.80;;;;;;;;;;5019549;28;20448;-80
2023/08/22 06:43:26;;;;;;;6.13;3.43;;;;;;;;;;5024501;28;20463;-79
2023/08/22 06:45:58;;;;;;;6.73;3.23;;;;;;;;;;5021594;28;20522;-80
2023/08/22 06:48:27;;;;;;;10.97;2.80;;;;;;;;;;5022604;28;20469;-78
2023/08/22 06:50:55;;;;;;;5.20;2.70;;;;;;;;;;5021896;28;20717;-78
2023/08/22 06:53:23;;;;;;;8.57;3.53;;;;;;;;;;5019488;28;20455;-81
2023/08/22 06:55:50;;;;;;;6.40;4.00;;;;;;;;;;5022669;28;20463;-82
2023/08/22 06:58:18;;;;;;;5.40;3.20;;;;;;;;;;5020088;28;20742;-81
2023/08/22 07:00:46;;;;;;;4.70;3.47;;;;;;;;;;5023034;28;20451;-80
2023/08/22 07:03:14;;;;;;;6.90;3.07;;;;;;;;;;5021382;28;20481;-80
2023/08/22 07:05:53;;;;;;;6.23;2.80;;;;;;;;;;5023518;28;20455;-78
2023/08/22 07:08:21;;;;;;;6.87;2.90;;;;;;;;;;5024126;28;20469;-83
2023/08/22 07:10:49;;;;;;;8.30;3.20;;;;;;;;;;5026087;28;20454;-81
2023/08/22 07:13:18;;;;;;;10.67;3.57;;;;;;;;;;5024845;28;20447;-79
2023/08/22 07:15:45;;;;;;;5.83;3.00;;;;;;;;;;5024583;28;20435;-78
2023/08/22 07:18:14;;;;;;;5.73;3.17;;;;;;;;;;5024186;28;20497;-79
2023/08/22 07:20:45;;;;;;;6.87;3.83;;;;;;;;;;5022873;28;20454;-81
2023/08/22 07:23:14;;;;;;;4.47;2.80;;;;;;;;;;5025070;28;20459;-81
2023/08/22 07:25:42;;;;;;;5.80;2.67;;;;;;;;;;5023831;28;20542;-83
2023/08/22 07:28:10;;;;;;;5.90;2.97;;;;;;;;;;5026183;28;20443;-82
2023/08/22 07:30:37;;;;;;;4.90;2.63;;;;;;;;;;5026571;28;20565;-80
2023/08/22 07:33:06;;;;;;;4.20;2.43;;;;;;;;;;5019996;28;20502;-79
2023/08/22 07:35:36;;;;;;;6.70;2.90;;;;;;;;;;5028798;28;20704;-80
2023/08/22 07:38:04;;;;;;;6.60;2.67;;;;;;;;;;5028533;28;20490;-77
2023/08/22 07:40:38;;;;;;;4.50;2.27;;;;;;;;;;5029751;28;20458;-81
2023/08/22 07:43:09;;;;;;;4.43;2.53;;;;;;;;;;5023658;28;20470;-82
2023/08/22 07:45:37;;;;;;;6.57;2.63;;;;;;;;;;5009225;28;20458;-78
2023/08/22 07:48:06;;;;;;;4.90;3.07;;;;;;;;;;5027183;28;20545;-80
2023/08/22 07:50:34;;;;;;;6.33;3.20;;;;;;;;;;5031637;28;20538;-81
2023/08/22 07:53:04;;;;;;;3.70;2.20;;;;;;;;;;5024186;28;20459;-80
2023/08/22 07:55:32;;;;;;;4.47;2.50;;;;;;;;;;5022750;28;20459;-81
2023/08/22 07:58:02;;;;;;;4.40;2.90;;;;;;;;;;5024391;28;20470;-80
2023/08/22 08:00:30;;;;;;;5.17;2.30;;;;;;;;;;5026451;28;20463;-82
2023/08/22 08:03:00;;;;;;;6.90;2.77;;;;;;;;;;5007426;28;20543;-79
2023/08/22 08:05:32;;;;;;;6.53;2.83;;;;;;;;;;5017386;28;20762;-78
2023/08/22 08:08:15;;;;;;;4.00;2.70;;;;;;;;;;5022916;28;20473;-80
2023/08/22 08:10:46;;;;;;;4.53;2.37;;;;;;;;;;5031610;28;20479;-79
2023/08/22 08:13:16;;;;;;;4.20;2.90;;;;;;;;;;5031843;28;20435;-82
2023/08/22 08:15:46;;;;;;;3.83;2.60;;;;;;;;;;5030231;28;20451;-81
2023/08/22 08:18:17;;;;;;;4.00;1.97;;;;;;;;;;5040616;28;20462;-79
2023/08/22 08:20:47;;;;;;;3.80;1.97;;;;;;;;;;5004784;28;20991;-82
2023/08/22 08:23:17;;;;;;;8.37;4.57;;;;;;;;;;5011419;28;20761;-81
2023/08/22 08:25:44;;;;;;;6.83;4.53;;;;;;;;;;5005966;28;20468;-79
2023/08/22 08:28:15;;;;;;;3.73;2.20;;;;;;;;;;5008682;28;20463;-78
2023/08/22 08:30:47;;;;;;;5.10;2.20;;;;;;;;;;5007201;28;20457;-79
2023/08/22 08:33:15;;;;;;;3.03;1.67;;;;;;;;;;5018538;28;20541;-81
2023/08/22 08:35:48;;;;;;;2.90;1.63;;;;;;;;;;5026026;28;20576;-78
2023/08/22 08:38:17;;;;;;;3.80;1.80;;;;;;;;;;5023423;28;20483;-80
2023/08/22 08:40:45;;;;;;;4.40;1.83;;;;;;;;;;5020217;28;20714;-80
2023/08/22 08:43:13;;;;;;;3.67;1.90;;;;;;;;;;5022056;28;20451;-82
2023/08/22 08:45:41;;;;;;;5.63;1.63;;;;;;;;;;5024653;28;20927;-80
2023/08/22 08:48:12;;;;;;;3.43;1.93;;;;;;;;;;5021628;28;20468;-81
2023/08/22 08:50:40;;;;;;;4.13;1.77;;;;;;;;;;5017092;28;20456;-80
2023/08/22 08:53:08;;;;;;;8.27;1.80;;;;;;;;;;5026302;28;20478;-78
2023/08/22 08:55:37;;;;;;;5.77;2.00;;;;;;;;;;5028060;28;20454;-78
2023/08/22 08:58:08;;;;;;;3.60;2.13;;;;;;;;;;5024406;28;20495;-82
2023/08/22 09:00:35;;;;;;;2.40;1.20;;;;;;;;;;5018655;28;20884;-81
2023/08/22 09:03:03;;;;;;;7.87;1.47;;;;;;;;;;5026481;28;20506;-78
2023/08/22 09:05:33;;;;;;;4.57;1.30;;;;;;;;;;5028774;28;20451;-80
2023/08/22 09:08:14;;;;;;;5.27;2.10;;;;;;;;;;5029662;28;20470;-79
2023/08/22 09:10:42;;;;;;;5.73;1.50;;;;;;;;;;5017487;28;20485;-76
2023/08/22 09:13:10;;;;;;;3.37;1.30;;;;;;;;;;5025977;28;20553;-80
2023/08/22 09:15:38;;;;;;;4.37;1.43;;;;;;;;;;5032832;28;20453;-80
2023/08/22 09:18:08;;;;;;;5.17;2.07;;;;;;;;;;5026618;28;20487;-80
2023/08/22 09:20:37;;;;;;;4.80;1.10;;;;;;;;;;5026394;28;20487;-80
2023/08/22 09:23:05;;;;;;;2.70;1.27;;;;;;;;;;5031065;28;20468;-79
2023/08/22 09:25:40;;;;;;;5.13;1.80;;;;;;;;;;5022546;28;20455;-81
2023/08/22 09:28:12;;;;;;;6.33;2.60;;;;;;;;;;5026166;28;20478;-80
2023/08/22 09:30:50;;;;;;;5.23;1.80;;;;;;;;;;5026345;28;20505;-77
2023/08/22 09:33:18;;;;;;;5.03;1.70;;;;;;;;;;5024005;28;20479;-83
2023/08/22 09:35:48;;;;;;;5.47;2.10;;;;;;;;;;5024219;28;20474;-80
2023/08/22 09:38:16;;;;;;;6.90;1.90;;;;;;;;;;5023814;28;20483;-80
2023/08/22 09:40:57;;;;;;;4.90;1.73;;;;;;;;;;5019948;28;20540;-79
2023/08/22 09:43:25;;;;;;;4.10;2.20;;;;;;;;;;5022957;28;21261;-79
2023/08/22 09:45:53;;;;;;;11.23;1.97;;;;;;;;;;5024988;28;20455;-80
2023/08/22 09:48:30;;;;;;;3.73;1.70;;;;;;;;;;5026473;28;20456;-81
2023/08/22 09:51:01;;;;;;;4.20;1.80;;;;;;;;;;5023464;28;20469;-80
2023/08/22 09:53:29;;;;;;;5.77;2.20;;;;;;;;;;5024432;28;20448;-79
2023/08/22 09:55:57;;;;;;;6.10;1.40;;;;;;;;;;5023784;28;20466;-80
2023/08/22 09:58:52;;;;;;;5.33;1.63;;;;;;;;;;5025085;28;20494;-79
2023/08/22 10:01:21;;;;;;;3.23;1.20;;;;;;;;;;5024371;28;20512;-80
2023/08/22 10:03:53;;;;;;;8.40;3.77;;;;;;;;;;5027116;28;20447;-80
2023/08/22 10:06:29;;;;;;;5.83;1.30;;;;;;;;;;5026056;28;20525;-80
2023/08/22 10:08:57;;;;;;;3.70;1.50;;;;;;;;;;5026580;28;20518;-80
2023/08/22 10:11:27;;;;;;;3.50;1.30;;;;;;;;;;5023911;28;20469;-80
2023/08/22 10:13:56;;;;;;;4.63;1.67;;;;;;;;;;5022936;28;20451;-80
2023/08/22 10:16:29;;;;;;;3.30;1.20;;;;;;;;;;5017959;28;20529;-78
2023/08/22 10:19:02;;;;;;;3.60;1.50;;;;;;;;;;5021102;28;20483;-81
2023/08/22 10:21:34;;;;;;;6.63;2.00;;;;;;;;;;5016625;28;20541;-81
2023/08/22 10:24:12;;;;;;;8.50;1.70;;;;;;;;;;5023560;28;20535;-81
2023/08/22 10:27:02;;;;;;;6.60;4.33;;;;;;;;;;5021719;28;20462;-79
2023/08/22 10:29:37;;;;;;;4.17;3.13;;;;;;;;;;5010383;28;20649;-79
2023/08/22 10:32:24;;;;;;;2.63;1.40;;;;;;;;;;5022344;28;20509;-80
2023/08/22 10:35:16;;;;;;;6.20;1.60;;;;;;;;;;5020923;28;20582;-80
2023/08/22 10:37:54;;;;;;;4.77;1.90;;;;;;;;;;5016809;28;20456;-80
2023/08/22 10:40:27;;;;;;;3.20;1.57;;;;;;;;;;5025268;28;20831;-82
2023/08/22 10:43:05;;;;;;;5.13;1.70;;;;;;;;;;5025684;28;20810;-81
2023/08/22 10:45:41;;;;;;;3.20;1.40;;;;;;;;;;5022693;28;20473;-79
2023/08/22 10:48:18;;;;;;;5.60;2.20;;;;;;;;;;5024195;28;20459;-80
2023/08/22 10:50:48;;;;;;;4.07;1.70;;;;;;;;;;5020043;28;20465;-81
2023/08/22 10:53:23;;;;;;;3.03;1.37;;;;;;;;;;5025523;28;20946;-80
2023/08/22 10:55:51;;;;;;;3.47;1.57;;;;;;;;;;5023400;28;20444;-80
2023/08/22 10:58:38;;;;;;;35.70;30.33;;;;;;;;;;5022558;28;20478;-80
2023/08/22 11:01:14;;;;;;;3.30;1.30;;;;;;;;;;5024696;28;21004;-79
2023/08/22 11:03:42;;;;;;;4.37;1.43;;;;;;;;;;5022760;28;20443;-80
2023/08/22 11:06:14;;;;;;;6.10;1.77;;;;;;;;;;5025208;28;20507;-79
2023/08/22 11:08:44;;;;;;;5.47;1.60;;;;;;;;;;5023422;28;20459;-78
2023/08/22 11:11:14;;;;;;;4.20;1.70;;;;;;;;;;5023085;28;20439;-80
2023/08/22 11:13:42;;;;;;;4.20;1.50;;;;;;;;;;5012032;28;20577;-79
2023/08/22 11:16:16;;;;;;;4.20;1.30;;;;;;;;;;5026650;28;20474;-80
2023/08/22 11:18:46;;;;;;;4.20;1.50;;;;;;;;;;5025340;28;20459;-80
2023/08/22 11:24:24;;;;;;;2.80;1.33;;;;;;;;;;5040118;28;20464;-78
2023/08/22 11:26:54;;;;;;;4.27;1.53;;;;;;;;;;5026489;28;20462;-79
2023/08/22 11:29:22;;;;;;;3.30;1.90;;;;;;;;;;5008721;28;20437;-81
2023/08/22 11:31:50;;;;;;;5.23;1.70;;;;;;;;;;5023515;28;20510;-82
2023/08/22 11:34:18;;;;;;;4.77;2.13;;;;;;;;;;5023635;28;20486;-79
2023/08/22 11:36:47;;;;;;;7.77;1.87;;;;;;;;;;5017935;28;20448;-81
2023/08/22 11:39:16;;;;;;;2.77;1.63;;;;;;;;;;5026370;28;20839;-79
2023/08/22 11:41:49;;;;;;;4.40;1.80;;;;;;;;;;5032101;28;20478;-79
2023/08/22 11:44:28;;;;;;;4.23;1.70;;;;;;;;;;5029260;28;20519;-80
2023/08/22 11:46:56;;;;;;;4.50;2.27;;;;;;;;;;5023193;28;20506;-82
2023/08/22 11:49:24;;;;;;;3.87;2.00;;;;;;;;;;5020192;28;20451;-81
2023/08/22 11:51:54;;;;;;;4.67;2.43;;;;;;;;;;5030298;28;20509;-80
2023/08/22 11:54:25;;;;;;;3.73;2.00;;;;;;;;;;5014585;28;20452;-80
2023/08/22 11:57:01;;;;;;;3.70;1.70;;;;;;;;;;5022963;28;20462;-80
2023/08/22 11:59:29;;;;;;;4.27;1.87;;;;;;;;;;5021048;28;20830;-79
2023/08/22 12:01:57;;;;;;;4.10;1.70;;;;;;;;;;5020893;28;20544;-79
2023/08/22 12:04:25;;;;;;;7.37;2.00;;;;;;;;;;5001545;28;20456;-80
2023/08/22 12:07:00;;;;;;;2.90;1.70;;;;;;;;;;5002784;28;20463;-79
2023/08/22 12:09:31;;;;;;;4.77;2.30;;;;;;;;;;5021342;28;20459;-80
2023/08/22 12:12:15;;;;;;;3.87;1.63;;;;;;;;;;5019789;28;20463;-81
2023/08/22 12:14:44;;;;;;;5.60;1.77;;;;;;;;;;5026980;28;20524;-80
2023/08/22 12:17:12;;;;;;;5.37;1.73;;;;;;;;;;5029460;28;20427;-81
2023/08/22 12:19:40;;;;;;;3.83;2.00;;;;;;;;;;5028094;28;20486;-80
2023/08/22 12:22:08;;;;;;;4.00;2.70;;;;;;;;;;5028169;28;20467;-79
2023/08/22 12:24:36;;;;;;;8.40;1.73;;;;;;;;;;5027902;28;20463;-80
2023/08/22 12:27:03;;;;;;;3.33;1.90;;;;;;;;;;5024560;28;20530;-80
2023/08/22 12:29:33;;;;;;;3.93;1.47;;;;;;;;;;5027259;28;20427;-79
2023/08/22 12:32:02;;;;;;;3.80;2.27;;;;;;;;;;5029048;28;20806;-79
2023/08/22 12:34:30;;;;;;;3.70;1.70;;;;;;;;;;5025224;28;20774;-79
2023/08/22 12:36:58;;;;;;;5.47;2.23;;;;;;;;;;5024855;28;20531;-80
2023/08/22 12:39:28;;;;;;;4.73;1.63;;;;;;;;;;5024624;28;20467;-79
2023/08/22 12:41:55;;;;;;;5.20;1.63;;;;;;;;;;5023985;28;20451;-78
2023/08/22 12:44:23;;;;;;;4.03;1.50;;;;;;;;;;5025032;28;20471;-80
2023/08/22 12:46:54;;;;;;;3.33;2.13;;;;;;;;;;5022649;28;20439;-79
2023/08/22 12:49:22;;;;;;;3.90;1.67;;;;;;;;;;5023476;28;20550;-79
2023/08/22 12:51:49;;;;;;;7.67;2.37;;;;;;;;;;5028786;28;20474;-79
2023/08/22 12:54:17;;;;;;;3.30;1.53;;;;;;;;;;5024508;28;20481;-80
2023/08/22 12:56:45;;;;;;;4.70;1.80;;;;;;;;;;5022699;28;20475;-79
2023/08/22 12:59:15;;;;;;;3.50;1.57;;;;;;;;;;5019515;28;20479;-79
2023/08/22 13:01:43;;;;;;;3.77;1.70;;;;;;;;;;5003294;28;20516;-79
2023/08/22 13:04:16;;;;;;;3.83;1.73;;;;;;;;;;5006278;28;20437;-79
2023/08/22 13:06:43;;;;;;;3.10;1.60;;;;;;;;;;5002571;28;20455;-78
2023/08/22 13:09:12;;;;;;;4.20;1.30;;;;;;;;;;5000207;28;20440;-79
2023/08/22 13:11:40;;;;;;;3.50;1.33;;;;;;;;;;4994150;28;20463;-78
2023/08/22 13:14:08;;;;;;;3.13;1.10;;;;;;;;;;4994789;28;20452;-78
2023/08/22 13:16:38;;;;;;;2.63;1.17;;;;;;;;;;4998082;28;20464;-80
2023/08/22 13:19:07;;;;;;;2.80;1.20;;;;;;;;;;4996289;28;20539;-77
2023/08/22 13:21:36;;;;;;;3.20;1.27;;;;;;;;;;5018049;28;20483;-80
2023/08/22 13:24:04;;;;;;;3.87;1.40;;;;;;;;;;5021747;28;20458;-80
2023/08/22 13:26:32;;;;;;;4.13;1.63;;;;;;;;;;5025019;28;20451;-77
2023/08/22 13:29:00;;;;;;;4.60;1.77;;;;;;;;;;5022473;28;20456;-78
2023/08/22 13:31:28;;;;;;;5.73;1.67;;;;;;;;;;5020086;28;20470;-80
2023/08/22 13:33:59;;;;;;;5.57;1.60;;;;;;;;;;5021217;28;20448;-79
2023/08/22 13:36:27;;;;;;;2.63;1.20;;;;;;;;;;5020503;28;20474;-79
2023/08/22 13:38:57;;;;;;;3.57;1.63;;;;;;;;;;5021320;28;21030;-79
2023/08/22 13:41:25;;;;;;;2.70;1.10;;;;;;;;;;5022826;28;20487;-81
2023/08/22 13:43:53;;;;;;;2.80;1.07;;;;;;;;;;5023252;28;20665;-77
2023/08/22 13:46:22;;;;;;;4.80;1.23;;;;;;;;;;5022783;28;20456;-80
2023/08/22 13:48:50;;;;;;;4.40;1.47;;;;;;;;;;5025484;28;20847;-78
2023/08/22 13:51:18;;;;;;;3.00;1.20;;;;;;;;;;5022129;28;20482;-77
2023/08/22 13:53:51;;;;;;;3.60;1.53;;;;;;;;;;5022847;28;20466;-79
2023/08/22 13:56:25;;;;;;;3.20;1.10;;;;;;;;;;5017667;28;20494;-79
2023/08/22 13:58:55;;;;;;;3.70;1.47;;;;;;;;;;5007102;28;20507;-79
2023/08/22 14:01:23;;;;;;;3.13;1.97;;;;;;;;;;5021825;28;20507;-80
2023/08/22 14:03:51;;;;;;;2.60;1.20;;;;;;;;;;5023288;28;20727;-80
2023/08/22 14:06:19;;;;;;;3.60;2.07;;;;;;;;;;5018042;28;20531;-79
2023/08/22 14:08:48;;;;;;;3.00;1.43;;;;;;;;;;5015087;28;20452;-77
2023/08/22 14:11:16;;;;;;;3.33;1.40;;;;;;;;;;5007594;28;20486;-78
2023/08/22 14:13:52;;;;;;;2.57;1.40;;;;;;;;;;5014521;28;20549;-78
2023/08/22 14:16:20;;;;;;;3.27;1.10;;;;;;;;;;5022217;28;21020;-79
2023/08/22 14:18:51;;;;;;;3.23;1.40;;;;;;;;;;5017916;28;20506;-80
2023/08/22 14:21:19;;;;;;;2.20;1.13;;;;;;;;;;5022117;28;20490;-80
2023/08/22 14:23:54;;;;;;;3.40;1.47;;;;;;;;;;5004123;28;20475;-77
2023/08/22 14:26:21;;;;;;;2.67;1.20;;;;;;;;;;5007071;28;20463;-79
2023/08/22 14:28:53;;;;;;;3.87;1.90;;;;;;;;;;5010089;28;20574;-78
2023/08/22 14:31:24;;;;;;;3.50;1.60;;;;;;;;;;5018687;28;20463;-77
2023/08/22 14:33:52;;;;;;;2.97;1.37;;;;;;;;;;5018224;28;20443;-78
2023/08/22 14:36:21;;;;;;;3.97;1.57;;;;;;;;;;5015560;28;20467;-76
2023/08/22 14:38:49;;;;;;;4.23;1.47;;;;;;;;;;5022263;28;21000;-79
2023/08/22 14:41:16;;;;;;;4.33;1.40;;;;;;;;;;5025896;28;20483;-81
2023/08/22 14:43:52;;;;;;;6.63;4.70;;;;;;;;;;5021385;28;20451;-79
2023/08/22 14:46:22;;;;;;;3.90;1.47;;;;;;;;;;5020195;28;20494;-78
2023/08/22 14:48:50;;;;;;;6.13;1.63;;;;;;;;;;5022811;28;20879;-78
2023/08/22 14:51:18;;;;;;;3.50;1.10;;;;;;;;;;5014846;28;20561;-80
2023/08/22 14:53:49;;;;;;;4.97;1.93;;;;;;;;;;5015902;28;20470;-79
2023/08/22 14:56:17;;;;;;;4.77;1.73;;;;;;;;;;5022020;28;20466;-78
2023/08/22 14:58:52;;;;;;;5.80;1.63;;;;;;;;;;5022157;28;20491;-78
2023/08/22 15:01:22;;;;;;;3.63;1.27;;;;;;;;;;5004306;28;20495;-78